createdAt,value
2023-03-02T00:01:39.127Z,3.20
2023-03-02T00:04:08.330Z,3.20
2023-03-02T00:06:36.421Z,3.10
2023-03-02T00:09:05.118Z,3.20
2023-03-02T00:11:32.842Z,3.20
2023-03-02T00:14:00.005Z,3.20
2023-03-02T00:16:26.956Z,3.20
2023-03-02T00:18:54.005Z,3.20
2023-03-02T00:21:21.065Z,3.10
2023-03-02T00:23:48.473Z,3.10
2023-03-02T00:26:15.496Z,3.10
2023-03-02T00:28:42.933Z,3.10
2023-03-02T00:31:09.970Z,3.00
2023-03-02T00:33:37.521Z,3.00
2023-03-02T00:36:04.850Z,2.90
2023-03-02T00:38:31.826Z,2.90
2023-03-02T00:40:59.668Z,2.90
2023-03-02T00:43:28.298Z,2.90
2023-03-02T00:45:55.688Z,2.80
2023-03-02T00:48:23.135Z,2.80
2023-03-02T00:50:50.115Z,2.70
2023-03-02T00:53:18.444Z,2.70
2023-03-02T00:55:53.030Z,2.70
2023-03-02T00:58:21.501Z,2.70
2023-03-02T01:00:48.861Z,2.70
2023-03-02T01:03:15.906Z,2.70
2023-03-02T01:05:43.171Z,2.70
2023-03-02T01:08:10.224Z,2.70
2023-03-02T01:10:37.819Z,2.60
2023-03-02T01:13:06.165Z,2.50
2023-03-02T01:15:33.701Z,2.50
2023-03-02T01:18:01.197Z,2.50
2023-03-02T01:20:28.738Z,2.40
2023-03-02T01:22:55.983Z,2.40
2023-03-02T01:25:23.007Z,2.40
2023-03-02T01:27:49.976Z,2.40
2023-03-02T01:30:17.388Z,2.40
2023-03-02T01:32:44.348Z,2.40
2023-03-02T01:35:11.459Z,2.40
2023-03-02T01:37:38.417Z,2.30
2023-03-02T01:40:06.931Z,2.30
2023-03-02T01:42:45.642Z,2.20
2023-03-02T01:45:31.317Z,2.20
2023-03-02T01:47:58.277Z,2.20
2023-03-02T01:50:26.625Z,2.20
2023-03-02T01:52:54.514Z,2.20
2023-03-02T01:55:24.951Z,2.30
2023-03-02T01:57:53.841Z,2.20
2023-03-02T02:00:22.629Z,2.20
2023-03-02T02:02:49.917Z,2.20
2023-03-02T02:05:20.013Z,2.10
2023-03-02T02:07:47.081Z,2.10
2023-03-02T02:10:14.917Z,2.10
2023-03-02T02:12:42.133Z,2.10
2023-03-02T02:15:09.587Z,2.10
2023-03-02T02:17:36.697Z,2.00
2023-03-02T02:20:13.134Z,2.00
2023-03-02T02:22:40.067Z,1.90
2023-03-02T02:25:12.217Z,2.00
2023-03-02T02:27:39.217Z,2.00
2023-03-02T02:30:06.815Z,1.90
2023-03-02T02:32:36.536Z,1.90
2023-03-02T02:35:15.749Z,1.90
2023-03-02T02:37:45.159Z,1.90
2023-03-02T02:40:38.969Z,1.80
2023-03-02T02:43:06.520Z,1.80
2023-03-02T02:45:33.753Z,1.80
2023-03-02T02:48:00.840Z,1.80
2023-03-02T02:50:31.929Z,1.80
2023-03-02T02:53:19.919Z,1.70
2023-03-02T02:55:48.265Z,1.70
2023-03-02T02:58:26.201Z,1.60
2023-03-02T03:00:54.973Z,1.60
2023-03-02T03:03:30.961Z,1.60
2023-03-02T03:05:59.094Z,1.60
2023-03-02T03:08:44.474Z,1.60
2023-03-02T03:11:16.018Z,1.50
2023-03-02T03:13:43.957Z,1.50
2023-03-02T03:16:12.707Z,1.50
2023-03-02T03:18:42.657Z,1.50
2023-03-02T03:21:09.647Z,1.50
2023-03-02T03:23:38.436Z,1.50
2023-03-02T03:26:06.127Z,1.50
2023-03-02T03:28:33.710Z,1.50
2023-03-02T03:31:03.777Z,1.50
2023-03-02T03:33:31.004Z,1.50
2023-03-02T03:35:58.038Z,1.50
2023-03-02T03:38:25.027Z,1.50
2023-03-02T03:40:51.981Z,1.50
2023-03-02T03:43:18.955Z,1.50
2023-03-02T03:45:46.099Z,1.40
2023-03-02T03:48:13.149Z,1.40
2023-03-02T03:50:40.250Z,1.40
2023-03-02T03:53:07.183Z,1.40
2023-03-02T03:55:34.439Z,1.40
2023-03-02T03:58:01.518Z,1.40
2023-03-02T04:00:28.702Z,1.40
2023-03-02T04:02:56.133Z,1.30
2023-03-02T04:05:23.982Z,1.30
2023-03-02T04:07:50.960Z,1.30
2023-03-02T04:10:18.012Z,1.30
2023-03-02T04:12:45.284Z,1.20
2023-03-02T04:15:14.166Z,1.20
2023-03-02T04:17:41.131Z,1.20
2023-03-02T04:20:09.707Z,1.20
2023-03-02T04:22:36.657Z,1.20
2023-03-02T04:25:05.314Z,1.20
2023-03-02T04:27:32.300Z,1.10
2023-03-02T04:29:59.275Z,1.10
2023-03-02T04:32:26.211Z,1.10
2023-03-02T04:34:53.221Z,1.10
2023-03-02T04:37:20.189Z,1.10
2023-03-02T04:39:51.333Z,1.10
2023-03-02T04:42:19.244Z,1.10
2023-03-02T04:44:46.323Z,1.00
2023-03-02T04:47:13.846Z,1.00
2023-03-02T04:49:41.112Z,1.00
2023-03-02T04:52:08.094Z,0.90
2023-03-02T04:54:35.042Z,0.90
2023-03-02T04:57:01.971Z,1.00
2023-03-02T04:59:31.742Z,1.00
2023-03-02T05:01:59.784Z,1.00
2023-03-02T05:04:27.302Z,1.00
2023-03-02T05:06:54.333Z,0.90
2023-03-02T05:09:27.261Z,0.90
2023-03-02T05:11:58.560Z,0.90
2023-03-02T05:14:25.853Z,0.90
2023-03-02T05:16:53.419Z,0.90
2023-03-02T05:19:20.287Z,0.90
2023-03-02T05:21:47.221Z,0.90
2023-03-02T05:24:14.450Z,0.90
2023-03-02T05:26:41.436Z,0.90
2023-03-02T05:29:08.488Z,0.90
2023-03-02T05:31:40.853Z,0.90
2023-03-02T05:34:08.950Z,0.90
2023-03-02T05:36:36.143Z,0.90
2023-03-02T05:39:04.087Z,0.90
2023-03-02T05:41:31.369Z,0.90
2023-03-02T05:43:58.569Z,0.90
2023-03-02T05:46:25.739Z,0.80
2023-03-02T05:48:53.032Z,0.80
2023-03-02T05:51:20.066Z,0.90
2023-03-02T05:53:47.069Z,0.90
2023-03-02T05:56:14.584Z,0.80
2023-03-02T05:58:41.701Z,0.80
2023-03-02T06:01:10.364Z,0.80
2023-03-02T06:03:37.362Z,0.90
2023-03-02T06:06:04.572Z,0.90
2023-03-02T06:08:31.988Z,0.90
2023-03-02T06:10:59.083Z,0.90
2023-03-02T06:13:25.981Z,0.90
2023-03-02T06:15:53.167Z,0.90
2023-03-02T06:18:20.205Z,0.90
2023-03-02T06:20:47.146Z,0.90
2023-03-02T06:23:14.269Z,0.90
2023-03-02T06:25:44.001Z,0.90
2023-03-02T06:28:10.943Z,0.90
2023-03-02T06:30:38.020Z,0.90
2023-03-02T06:33:05.132Z,0.90
2023-03-02T06:35:32.285Z,0.90
2023-03-02T06:37:59.238Z,0.90
2023-03-02T06:40:26.196Z,0.90
2023-03-02T06:42:53.132Z,0.90
2023-03-02T06:45:20.622Z,0.90
2023-03-02T06:47:47.629Z,0.90
2023-03-02T06:50:14.579Z,1.00
2023-03-02T06:52:41.520Z,0.90
2023-03-02T06:55:08.862Z,0.90
2023-03-02T06:57:35.800Z,0.90
2023-03-02T07:00:10.176Z,0.90
2023-03-02T07:02:37.507Z,1.00
2023-03-02T07:05:05.048Z,1.00
2023-03-02T07:07:32.088Z,1.10
2023-03-02T07:09:58.953Z,1.10
2023-03-02T07:12:25.870Z,1.20
2023-03-02T07:14:52.780Z,1.20
2023-03-02T07:17:19.754Z,1.30
2023-03-02T07:19:46.973Z,1.30
2023-03-02T07:22:14.180Z,1.30
2023-03-02T07:24:42.584Z,1.40
2023-03-02T07:27:10.466Z,1.50
2023-03-02T07:29:37.649Z,1.50
2023-03-02T07:32:04.763Z,1.50
2023-03-02T07:34:31.775Z,1.60
2023-03-02T07:36:58.788Z,1.60
2023-03-02T07:39:25.826Z,1.70
2023-03-02T07:41:52.772Z,1.70
2023-03-02T07:44:19.633Z,1.80
2023-03-02T07:46:46.803Z,1.80
2023-03-02T07:49:13.729Z,1.80
2023-03-02T07:51:40.678Z,1.90
2023-03-02T07:54:07.612Z,1.90
2023-03-02T07:56:34.588Z,2.00
2023-03-02T07:59:01.453Z,2.00
2023-03-02T08:01:28.349Z,2.00
2023-03-02T08:03:55.360Z,2.10
2023-03-02T08:06:22.474Z,2.20
2023-03-02T08:08:49.365Z,2.20
2023-03-02T08:11:17.430Z,2.30
2023-03-02T08:13:44.810Z,2.40
2023-03-02T08:16:12.874Z,2.50
2023-03-02T08:18:40.043Z,2.50
2023-03-02T08:21:14.907Z,2.60
2023-03-02T08:23:41.920Z,2.60
2023-03-02T08:26:12.451Z,2.70
2023-03-02T08:28:40.484Z,2.70
2023-03-02T08:31:08.039Z,2.80
2023-03-02T08:33:35.161Z,2.90
2023-03-02T08:36:03.903Z,2.90
2023-03-02T08:38:31.126Z,3.00
2023-03-02T08:40:58.042Z,3.00
2023-03-02T08:43:25.945Z,3.10
2023-03-02T08:45:53.635Z,3.20
2023-03-02T08:48:21.456Z,3.40
2023-03-02T08:50:58.978Z,3.40
2023-03-02T08:53:26.360Z,3.50
2023-03-02T08:55:53.364Z,3.60
2023-03-02T08:58:20.431Z,3.60
2023-03-02T09:00:47.620Z,3.70
2023-03-02T09:03:14.697Z,3.70
2023-03-02T09:05:41.630Z,3.80
2023-03-02T09:08:08.733Z,3.90
2023-03-02T09:10:35.887Z,4.00
2023-03-02T09:13:03.242Z,4.00
2023-03-02T09:15:30.170Z,4.10
2023-03-02T09:17:57.358Z,4.20
2023-03-02T09:20:24.510Z,4.20
2023-03-02T09:22:51.468Z,4.30
2023-03-02T09:25:18.912Z,4.30
2023-03-02T09:27:46.575Z,4.30
2023-03-02T09:30:14.359Z,4.50
2023-03-02T09:32:41.620Z,4.60
2023-03-02T09:35:09.068Z,4.70
2023-03-02T09:37:39.060Z,4.70
2023-03-02T09:40:12.490Z,4.80
2023-03-02T09:42:54.651Z,4.90
2023-03-02T09:45:26.052Z,5.00
2023-03-02T09:47:53.202Z,5.00
2023-03-02T09:50:23.198Z,5.10
2023-03-02T09:52:53.151Z,5.20
2023-03-02T09:55:22.586Z,5.20
2023-03-02T09:57:49.882Z,5.30
2023-03-02T10:00:23.872Z,5.40
2023-03-02T10:03:14.832Z,5.50
2023-03-02T10:05:44.910Z,5.50
2023-03-02T10:08:13.394Z,5.40
2023-03-02T10:10:44.291Z,5.50
2023-03-02T10:13:21.500Z,5.60
2023-03-02T10:15:54.593Z,5.70
2023-03-02T10:18:29.212Z,5.80
2023-03-02T10:20:59.189Z,5.90
2023-03-02T10:23:30.750Z,6.00
2023-03-02T10:26:01.283Z,6.00
2023-03-02T10:28:32.622Z,6.10
2023-03-02T10:31:06.534Z,6.20
2023-03-02T10:33:36.485Z,6.30
2023-03-02T10:36:05.887Z,6.40
2023-03-02T10:38:32.849Z,6.40
2023-03-02T10:41:04.189Z,6.40
2023-03-02T10:43:31.117Z,6.40
2023-03-02T10:45:58.910Z,6.30
2023-03-02T10:48:26.091Z,6.30
2023-03-02T10:50:54.011Z,6.50
2023-03-02T10:53:21.013Z,6.60
2023-03-02T10:55:48.996Z,6.70
2023-03-02T10:58:36.429Z,6.70
2023-03-02T11:01:07.453Z,6.80
2023-03-02T11:03:34.424Z,6.80
2023-03-02T11:06:16.992Z,6.90
2023-03-02T11:08:43.920Z,7.00
2023-03-02T11:11:24.361Z,7.10
2023-03-02T11:13:51.655Z,7.20
2023-03-02T11:16:18.591Z,7.40
2023-03-02T11:18:54.831Z,7.50
2023-03-02T11:21:24.825Z,7.50
2023-03-02T11:24:10.809Z,7.50
2023-03-02T11:26:39.586Z,7.50
2023-03-02T11:29:15.147Z,7.60
2023-03-02T11:31:48.508Z,7.90
2023-03-02T11:34:25.572Z,7.90
2023-03-02T11:36:55.322Z,8.00
2023-03-02T11:39:25.641Z,8.00
2023-03-02T11:41:54.065Z,8.00
2023-03-02T11:44:21.362Z,8.10
2023-03-02T11:46:54.015Z,8.20
2023-03-02T11:49:47.319Z,8.30
2023-03-02T11:52:21.835Z,8.30
2023-03-02T11:55:00.199Z,8.40
2023-03-02T11:57:45.584Z,8.50
2023-03-02T12:00:15.809Z,8.70
2023-03-02T12:02:42.749Z,8.90
2023-03-02T12:05:24.410Z,9.10
2023-03-02T12:08:00.421Z,9.30
2023-03-02T12:10:35.596Z,9.30
2023-03-02T12:13:14.756Z,9.40
2023-03-02T12:15:43.167Z,9.50
2023-03-02T12:18:22.588Z,9.60
2023-03-02T12:20:59.966Z,9.70
2023-03-02T12:23:27.024Z,9.60
2023-03-02T12:26:03.106Z,9.60
2023-03-02T12:28:35.419Z,9.70
2023-03-02T12:31:04.025Z,9.80
2023-03-02T12:33:31.086Z,9.90
2023-03-02T12:36:18.913Z,10.00
2023-03-02T12:38:52.809Z,10.20
2023-03-02T12:41:22.939Z,10.30
2023-03-02T12:43:58.590Z,10.50
2023-03-02T12:46:36.973Z,10.70
2023-03-02T12:49:05.533Z,10.80
2023-03-02T12:51:43.564Z,10.90
2023-03-02T12:54:14.826Z,11.10
2023-03-02T12:56:42.049Z,11.20
2023-03-02T12:59:19.757Z,11.40
2023-03-02T13:01:46.751Z,11.50
2023-03-02T13:04:23.757Z,11.40
2023-03-02T13:06:51.050Z,11.40
2023-03-02T13:09:20.555Z,11.40
2023-03-02T13:11:49.355Z,11.50
2023-03-02T13:14:18.220Z,11.70
2023-03-02T13:16:53.439Z,11.60
2023-03-02T13:19:20.523Z,11.70
2023-03-02T13:21:47.484Z,11.80
2023-03-02T13:24:26.556Z,11.80
2023-03-02T13:26:57.458Z,11.70
2023-03-02T13:29:26.724Z,11.80
2023-03-02T13:31:57.366Z,12.00
2023-03-02T13:34:28.594Z,12.10
2023-03-02T13:36:55.546Z,12.00
2023-03-02T13:39:25.388Z,12.10
2023-03-02T13:41:53.728Z,12.30
2023-03-02T13:44:23.326Z,12.50
2023-03-02T13:46:50.471Z,12.60
2023-03-02T13:49:33.881Z,12.70
2023-03-02T13:52:08.228Z,12.60
2023-03-02T13:54:36.832Z,12.70
2023-03-02T13:57:05.070Z,12.80
2023-03-02T13:59:35.224Z,12.80
2023-03-02T14:02:02.169Z,12.80
2023-03-02T14:04:29.156Z,12.80
2023-03-02T14:06:56.226Z,12.80
2023-03-02T14:09:23.331Z,12.80
2023-03-02T14:11:52.117Z,12.70
2023-03-02T14:14:20.876Z,12.70
2023-03-02T14:16:48.101Z,12.70
2023-03-02T14:19:18.688Z,12.70
2023-03-02T14:21:46.541Z,12.80
2023-03-02T14:24:13.578Z,12.80
2023-03-02T14:26:48.080Z,12.80
2023-03-02T14:29:23.024Z,13.00
2023-03-02T14:31:50.105Z,13.00
2023-03-02T14:34:17.615Z,13.00
2023-03-02T14:36:45.912Z,13.10
2023-03-02T14:39:19.611Z,13.10
2023-03-02T14:41:53.869Z,13.20
2023-03-02T14:44:21.800Z,13.20
2023-03-02T14:46:48.898Z,13.10
2023-03-02T14:49:15.899Z,13.00
2023-03-02T14:51:44.133Z,13.10
2023-03-02T14:54:15.915Z,13.10
2023-03-02T14:56:43.439Z,13.10
2023-03-02T14:59:13.924Z,13.40
2023-03-02T15:01:44.907Z,13.40
2023-03-02T15:04:11.956Z,13.40
2023-03-02T15:06:40.685Z,13.50
2023-03-02T15:09:08.623Z,13.60
2023-03-02T15:11:36.013Z,13.50
2023-03-02T15:14:03.326Z,13.40
2023-03-02T15:16:30.228Z,13.30
2023-03-02T15:18:58.811Z,13.30
2023-03-02T15:21:26.031Z,13.40
2023-03-02T15:23:53.089Z,13.50
2023-03-02T15:26:20.041Z,13.30
2023-03-02T15:28:49.894Z,13.00
2023-03-02T15:31:17.193Z,13.10
2023-03-02T15:33:45.730Z,13.10
2023-03-02T15:36:13.304Z,13.10
2023-03-02T15:38:40.454Z,13.20
2023-03-02T15:41:08.531Z,13.10
2023-03-02T15:43:35.565Z,13.00
2023-03-02T15:46:02.527Z,13.10
2023-03-02T15:48:30.162Z,13.20
2023-03-02T15:51:00.935Z,13.20
2023-03-02T15:53:28.707Z,13.10
2023-03-02T15:55:55.926Z,13.20
2023-03-02T15:58:23.159Z,13.00
2023-03-02T16:00:50.305Z,12.90
2023-03-02T16:03:19.499Z,12.80
2023-03-02T16:05:46.444Z,12.80
2023-03-02T16:08:13.398Z,12.90
2023-03-02T16:10:43.016Z,12.80
2023-03-02T16:13:10.498Z,12.60
2023-03-02T16:15:40.270Z,12.60
2023-03-02T16:18:11.268Z,12.50
2023-03-02T16:20:39.106Z,12.50
2023-03-02T16:23:07.799Z,12.40
2023-03-02T16:25:40.045Z,12.40
2023-03-02T16:28:07.479Z,12.40
2023-03-02T16:30:35.463Z,12.30
2023-03-02T16:33:03.735Z,12.20
2023-03-02T16:35:31.387Z,12.10
2023-03-02T16:38:01.098Z,12.10
2023-03-02T16:40:28.253Z,12.00
2023-03-02T16:42:55.193Z,12.00
2023-03-02T16:45:23.073Z,12.00
2023-03-02T16:47:50.635Z,11.90
2023-03-02T16:50:18.477Z,11.80
2023-03-02T16:52:45.468Z,11.80
2023-03-02T16:55:14.781Z,11.70
2023-03-02T16:57:42.173Z,11.60
2023-03-02T17:00:10.158Z,11.60
2023-03-02T17:02:37.124Z,11.60
2023-03-02T17:05:04.318Z,11.50
2023-03-02T17:07:31.268Z,11.40
2023-03-02T17:09:58.485Z,11.40
2023-03-02T17:12:25.992Z,11.20
2023-03-02T17:14:52.888Z,11.20
2023-03-02T17:17:19.783Z,11.10
2023-03-02T17:19:46.672Z,11.00
2023-03-02T17:22:14.406Z,10.90
2023-03-02T17:24:41.547Z,10.70
2023-03-02T17:27:23.789Z,10.60
2023-03-02T17:29:52.326Z,10.60
2023-03-02T17:32:19.313Z,10.50
2023-03-02T17:34:46.955Z,10.50
2023-03-02T17:37:14.276Z,10.30
2023-03-02T17:39:41.215Z,10.20
2023-03-02T17:42:08.089Z,10.00
2023-03-02T17:44:37.646Z,9.80
2023-03-02T17:47:06.585Z,9.60
2023-03-02T17:49:33.504Z,9.40
2023-03-02T17:52:00.458Z,9.30
2023-03-02T17:54:27.485Z,9.20
2023-03-02T17:56:54.365Z,9.10
2023-03-02T17:59:21.207Z,9.00
2023-03-02T18:01:48.145Z,9.00
2023-03-02T18:04:15.265Z,8.90
2023-03-02T18:06:42.175Z,8.80
2023-03-02T18:09:09.202Z,8.80
2023-03-02T18:11:36.234Z,8.70
2023-03-02T18:14:03.144Z,8.70
2023-03-02T18:16:30.159Z,8.60
2023-03-02T18:18:57.584Z,8.50
2023-03-02T18:21:24.608Z,8.40
2023-03-02T18:23:51.631Z,8.40
2023-03-02T18:26:18.562Z,8.40
2023-03-02T18:28:45.812Z,8.30
2023-03-02T18:31:16.013Z,8.30
2023-03-02T18:33:43.326Z,8.20
2023-03-02T18:36:10.660Z,8.20
2023-03-02T18:38:37.684Z,8.10
2023-03-02T18:41:08.196Z,8.10
2023-03-02T18:43:37.710Z,8.10
2023-03-02T18:46:10.467Z,8.00
2023-03-02T18:48:40.112Z,8.00
2023-03-02T18:51:07.054Z,8.00
2023-03-02T18:53:34.225Z,8.00
2023-03-02T18:56:01.194Z,8.00
2023-03-02T18:58:28.432Z,7.90
2023-03-02T19:00:56.595Z,7.90
2023-03-02T19:03:25.020Z,7.90
2023-03-02T19:05:53.415Z,7.80
2023-03-02T19:08:23.943Z,7.80
2023-03-02T19:10:55.093Z,7.70
2023-03-02T19:13:22.276Z,7.60
2023-03-02T19:15:49.245Z,7.60
2023-03-02T19:18:17.295Z,7.60
2023-03-02T19:20:48.088Z,7.70
2023-03-02T19:23:15.299Z,7.60
2023-03-02T19:25:43.220Z,7.50
2023-03-02T19:28:10.691Z,7.30
2023-03-02T19:30:37.769Z,7.30
2023-03-02T19:33:10.310Z,7.20
2023-03-02T19:35:40.372Z,7.10
2023-03-02T19:38:07.774Z,7.00
2023-03-02T19:40:35.488Z,7.00
2023-03-02T19:43:02.500Z,7.00
2023-03-02T19:45:32.446Z,7.00
2023-03-02T19:47:59.983Z,6.90
2023-03-02T19:50:27.820Z,6.80
2023-03-02T19:52:54.962Z,6.90
2023-03-02T19:55:22.482Z,6.80
2023-03-02T19:57:51.808Z,6.80
2023-03-02T20:00:19.571Z,6.70
2023-03-02T20:02:47.430Z,6.70
2023-03-02T20:05:14.907Z,6.70
2023-03-02T20:07:42.255Z,6.60
2023-03-02T20:10:10.020Z,6.60
2023-03-02T20:12:37.174Z,6.50
2023-03-02T20:15:05.365Z,6.50
2023-03-02T20:17:32.696Z,6.40
2023-03-02T20:20:01.413Z,6.40
2023-03-02T20:22:28.455Z,6.30
2023-03-02T20:24:55.298Z,6.30
2023-03-02T20:27:22.140Z,6.30
2023-03-02T20:29:49.254Z,6.30
2023-03-02T20:32:16.521Z,6.30
2023-03-02T20:34:43.527Z,6.20
2023-03-02T20:37:12.323Z,6.20
2023-03-02T20:39:40.105Z,6.10
2023-03-02T20:42:07.486Z,6.10
2023-03-02T20:44:34.546Z,6.00
2023-03-02T20:47:03.195Z,6.00
2023-03-02T20:49:31.368Z,6.00
2023-03-02T20:51:59.255Z,6.00
2023-03-02T20:54:27.956Z,5.90
2023-03-02T20:56:55.274Z,5.90
2023-03-02T20:59:22.942Z,5.90
2023-03-02T21:01:49.959Z,6.00
2023-03-02T21:04:17.045Z,5.90
2023-03-02T21:07:04.277Z,5.80
2023-03-02T21:09:31.181Z,5.70
2023-03-02T21:11:59.030Z,5.80
2023-03-02T21:14:27.956Z,5.70
2023-03-02T21:19:37.069Z,5.70
2023-03-02T21:22:04.174Z,5.80
2023-03-02T21:24:31.175Z,6.00
2023-03-02T21:26:58.466Z,6.10
2023-03-02T21:29:26.806Z,6.20
2023-03-02T21:31:54.192Z,6.20
2023-03-02T21:34:22.108Z,6.30
2023-03-02T21:36:53.437Z,6.30
2023-03-02T21:39:23.733Z,6.20
2023-03-02T21:41:51.294Z,6.20
2023-03-02T21:44:18.280Z,6.30
2023-03-02T21:46:45.328Z,6.30
2023-03-02T21:49:16.410Z,6.20
2023-03-02T21:51:43.444Z,6.10
2023-03-02T21:54:33.730Z,6.10
2023-03-02T21:57:00.920Z,6.00
2023-03-02T21:59:30.946Z,6.00
2023-03-02T22:01:57.957Z,5.90
2023-03-02T22:04:25.536Z,5.80
2023-03-02T22:06:52.530Z,5.80
2023-03-02T22:09:19.598Z,5.80
2023-03-02T22:11:47.356Z,5.70
2023-03-02T22:14:15.437Z,5.70
2023-03-02T22:16:46.279Z,5.70
2023-03-02T22:19:32.364Z,5.70
2023-03-02T22:22:00.361Z,5.60
2023-03-02T22:24:29.254Z,5.50
2023-03-02T22:27:09.396Z,5.50
2023-03-02T22:29:41.177Z,5.50
2023-03-02T22:32:27.780Z,5.50
2023-03-02T22:34:55.960Z,5.50
2023-03-02T22:37:23.795Z,5.50
2023-03-02T22:39:53.703Z,5.40
2023-03-02T22:42:25.244Z,5.30
2023-03-02T22:45:15.043Z,5.30
2023-03-02T22:47:42.379Z,5.20
2023-03-02T22:50:27.326Z,5.20
2023-03-02T22:52:55.647Z,5.20
2023-03-02T22:55:31.678Z,5.10
2023-03-02T22:57:58.611Z,5.10
2023-03-02T23:00:37.665Z,5.00
2023-03-02T23:03:15.000Z,5.00
2023-03-02T23:05:43.022Z,5.00
2023-03-02T23:08:17.707Z,4.90
2023-03-02T23:10:46.383Z,4.90
2023-03-02T23:13:14.630Z,4.90
2023-03-02T23:15:41.777Z,4.90
2023-03-02T23:18:28.729Z,4.90
2023-03-02T23:20:55.720Z,4.90
2023-03-02T23:23:23.863Z,4.90
2023-03-02T23:25:50.893Z,4.80
2023-03-02T23:28:17.827Z,4.80
2023-03-02T23:30:45.614Z,4.70
2023-03-02T23:33:15.232Z,4.70
2023-03-02T23:35:42.348Z,4.60
2023-03-02T23:38:09.264Z,4.70
2023-03-02T23:40:36.262Z,4.60
2023-03-02T23:43:03.320Z,4.50
2023-03-02T23:45:30.235Z,4.50
2023-03-02T23:47:58.008Z,4.40
2023-03-02T23:50:24.936Z,4.40
2023-03-02T23:52:51.821Z,4.40
2023-03-02T23:55:18.760Z,4.30
2023-03-02T23:57:45.686Z,4.30
